createdAt,value
2023-02-05T00:00:55.666Z,5.47
2023-02-05T00:03:23.525Z,5.53
2023-02-05T00:05:51.249Z,6.15
2023-02-05T00:08:19.152Z,6.88
2023-02-05T00:10:52.768Z,6.43
2023-02-05T00:13:20.554Z,4.88
2023-02-05T00:15:48.405Z,7.13
2023-02-05T00:18:19.022Z,5.88
2023-02-05T00:20:46.711Z,5.57
2023-02-05T00:23:14.515Z,5.65
2023-02-05T00:25:42.401Z,4.53
2023-02-05T00:28:10.309Z,6.00
2023-02-05T00:30:41.879Z,5.47
2023-02-05T00:33:09.874Z,4.70
2023-02-05T00:35:37.888Z,4.00
2023-02-05T00:38:05.752Z,4.35
2023-02-05T00:40:33.576Z,4.35
2023-02-05T00:43:01.360Z,6.28
2023-02-05T00:45:36.420Z,3.53
2023-02-05T00:48:05.109Z,3.95
2023-02-05T00:50:35.505Z,5.40
2023-02-05T00:53:03.701Z,4.53
2023-02-05T00:55:32.053Z,4.35
2023-02-05T00:58:02.455Z,6.10
2023-02-05T01:00:31.103Z,4.10
2023-02-05T01:02:58.969Z,4.65
2023-02-05T01:05:28.273Z,5.13
2023-02-05T01:07:56.037Z,4.88
2023-02-05T01:10:24.212Z,6.03
2023-02-05T01:12:52.159Z,2.78
2023-02-05T01:15:20.474Z,5.05
2023-02-05T01:17:48.703Z,4.53
2023-02-05T01:20:17.124Z,8.75
2023-02-05T01:22:47.810Z,3.92
2023-02-05T01:25:16.520Z,6.40
2023-02-05T01:27:45.908Z,5.88
2023-02-05T01:30:15.483Z,4.65
2023-02-05T01:32:43.480Z,5.55
2023-02-05T01:35:11.320Z,7.20
2023-02-05T01:37:39.216Z,8.10
2023-02-05T01:40:07.447Z,5.90
2023-02-05T01:42:37.757Z,5.10
2023-02-05T01:45:25.322Z,4.97
2023-02-05T01:47:54.451Z,6.25
2023-02-05T01:50:37.216Z,6.05
2023-02-05T01:53:09.194Z,9.05
2023-02-05T01:58:05.584Z,4.10
2023-02-05T02:00:33.597Z,4.72
2023-02-05T02:03:01.621Z,4.82
2023-02-05T02:05:29.631Z,6.57
2023-02-05T02:07:57.598Z,6.40
2023-02-05T02:10:27.108Z,7.88
2023-02-05T02:12:56.051Z,6.20
2023-02-05T02:15:26.177Z,4.63
2023-02-05T02:18:17.893Z,5.30
2023-02-05T02:20:46.268Z,3.33
2023-02-05T02:23:46.852Z,6.75
2023-02-05T02:26:27.069Z,4.40
2023-02-05T02:29:01.392Z,4.45
2023-02-05T02:31:51.974Z,5.82
2023-02-05T02:34:25.113Z,3.97
2023-02-05T02:37:15.358Z,6.45
2023-02-05T02:40:01.088Z,4.80
2023-02-05T02:42:55.131Z,6.25
2023-02-05T02:45:27.551Z,6.43
2023-02-05T02:47:58.175Z,5.20
2023-02-05T02:50:33.217Z,3.42
2023-02-05T02:53:09.884Z,5.43
2023-02-05T02:55:39.478Z,6.57
2023-02-05T02:58:11.088Z,4.32
2023-02-05T03:00:42.070Z,7.45
2023-02-05T03:03:11.127Z,4.70
2023-02-05T03:05:41.753Z,5.05
2023-02-05T03:08:24.165Z,8.55
2023-02-05T03:11:26.476Z,7.10
2023-02-05T03:13:56.261Z,4.97
2023-02-05T03:16:27.789Z,5.05
2023-02-05T03:18:56.635Z,7.00
2023-02-05T03:21:50.507Z,6.32
2023-02-05T03:24:18.597Z,4.35
2023-02-05T03:26:46.514Z,6.70
2023-02-05T03:29:44.920Z,4.20
2023-02-05T03:32:44.247Z,4.32
2023-02-05T03:35:26.860Z,7.18
2023-02-05T03:38:01.094Z,4.07
2023-02-05T03:40:38.312Z,3.40
2023-02-05T03:43:06.092Z,4.95
2023-02-05T03:45:44.492Z,4.65
2023-02-05T03:48:34.343Z,5.78
2023-02-05T03:51:26.839Z,6.22
2023-02-05T03:54:05.813Z,6.35
2023-02-05T03:56:48.730Z,5.50
2023-02-05T03:59:17.165Z,4.45
2023-02-05T04:01:46.429Z,6.07
2023-02-05T04:04:15.809Z,4.22
2023-02-05T04:06:44.595Z,5.68
2023-02-05T04:09:13.128Z,6.15
2023-02-05T04:11:41.081Z,4.85
2023-02-05T04:14:08.967Z,4.20
2023-02-05T04:16:38.504Z,5.22
2023-02-05T04:19:06.718Z,3.83
2023-02-05T04:21:35.232Z,5.35
2023-02-05T04:24:03.459Z,6.10
2023-02-05T04:26:31.925Z,4.50
2023-02-05T04:29:04.186Z,3.22
2023-02-05T04:31:35.566Z,8.32
2023-02-05T04:34:03.596Z,4.38
2023-02-05T04:36:31.599Z,4.80
2023-02-05T04:38:59.810Z,6.55
2023-02-05T04:41:27.912Z,3.95
2023-02-05T04:43:55.880Z,4.28
2023-02-05T04:46:23.753Z,3.88
2023-02-05T04:48:51.782Z,5.93
2023-02-05T04:51:19.779Z,4.20
2023-02-05T04:53:47.590Z,3.92
2023-02-05T04:56:16.957Z,4.85
2023-02-05T04:58:45.624Z,3.72
2023-02-05T05:01:19.351Z,4.60
2023-02-05T05:03:47.459Z,4.45
2023-02-05T05:06:16.873Z,4.82
2023-02-05T05:08:45.050Z,7.80
2023-02-05T05:11:17.973Z,2.85
2023-02-05T05:13:46.186Z,3.78
2023-02-05T05:16:14.577Z,5.63
2023-02-05T05:18:42.663Z,4.20
2023-02-05T05:21:10.540Z,3.83
2023-02-05T05:23:39.252Z,3.38
2023-02-05T05:26:08.850Z,4.78
2023-02-05T05:28:37.499Z,8.82
2023-02-05T05:31:20.138Z,5.43
2023-02-05T05:33:48.471Z,4.43
2023-02-05T05:36:16.649Z,4.35
2023-02-05T05:38:47.393Z,4.32
2023-02-05T05:41:44.749Z,6.28
2023-02-05T05:44:15.592Z,5.10
2023-02-05T05:46:43.494Z,4.53
2023-02-05T05:49:11.318Z,5.13
2023-02-05T05:51:39.251Z,4.32
2023-02-05T05:54:07.241Z,4.20
2023-02-05T05:56:36.491Z,4.50
2023-02-05T05:59:04.327Z,2.92
2023-02-05T06:01:32.283Z,4.97
2023-02-05T06:04:01.003Z,5.10
2023-02-05T06:06:29.608Z,3.00
2023-02-05T06:08:57.516Z,4.60
2023-02-05T06:11:25.477Z,3.38
2023-02-05T06:13:53.450Z,4.72
2023-02-05T06:16:21.318Z,3.47
2023-02-05T06:18:49.251Z,3.40
2023-02-05T06:21:16.906Z,3.20
2023-02-05T06:23:44.665Z,3.35
2023-02-05T06:26:15.093Z,5.47
2023-02-05T06:28:42.951Z,5.22
2023-02-05T06:31:13.793Z,4.45
2023-02-05T06:33:41.646Z,4.82
2023-02-05T06:36:12.176Z,3.63
2023-02-05T06:38:40.200Z,6.38
2023-02-05T06:41:08.104Z,2.75
2023-02-05T06:43:35.799Z,4.20
2023-02-05T06:46:03.724Z,3.67
2023-02-05T06:48:31.361Z,6.72
2023-02-05T06:50:59.022Z,3.20
2023-02-05T06:53:26.943Z,3.85
2023-02-05T06:55:59.144Z,4.63
2023-02-05T06:58:26.883Z,5.03
2023-02-05T07:00:54.812Z,4.88
2023-02-05T07:03:22.577Z,3.65
2023-02-05T07:05:50.495Z,4.43
2023-02-05T07:08:18.440Z,4.63
2023-02-05T07:10:46.526Z,4.45
2023-02-05T07:13:14.647Z,3.50
2023-02-05T07:15:42.586Z,4.53
2023-02-05T07:18:10.506Z,4.32
2023-02-05T07:20:38.336Z,5.95
2023-02-05T07:23:06.057Z,5.47
2023-02-05T07:25:38.037Z,3.70
2023-02-05T07:28:07.317Z,4.97
2023-02-05T07:30:35.739Z,7.20
2023-02-05T07:33:06.294Z,4.00
2023-02-05T07:35:36.849Z,5.35
2023-02-05T07:38:04.753Z,6.15
2023-02-05T07:40:32.870Z,5.85
2023-02-05T07:43:00.576Z,4.55
2023-02-05T07:45:28.411Z,7.55
2023-02-05T07:47:59.067Z,5.47
2023-02-05T07:50:26.787Z,5.38
2023-02-05T07:52:54.626Z,3.55
2023-02-05T07:55:22.383Z,8.30
2023-02-05T07:57:50.096Z,4.85
2023-02-05T08:00:18.056Z,4.68
2023-02-05T08:02:45.909Z,6.55
2023-02-05T08:05:13.858Z,4.63
2023-02-05T08:07:44.028Z,6.43
2023-02-05T08:10:14.530Z,4.40
2023-02-05T08:12:42.426Z,5.30
2023-02-05T08:15:10.916Z,5.10
2023-02-05T08:17:38.763Z,5.60
2023-02-05T08:20:13.139Z,5.13
2023-02-05T08:22:43.141Z,7.18
2023-02-05T08:25:12.854Z,5.95
2023-02-05T08:27:41.815Z,5.45
2023-02-05T08:30:12.988Z,7.85
2023-02-05T08:32:41.008Z,6.80
2023-02-05T08:35:09.234Z,5.22
2023-02-05T08:37:37.154Z,7.22
2023-02-05T08:40:05.175Z,5.10
2023-02-05T08:42:33.061Z,6.60
2023-02-05T08:45:01.189Z,7.55
2023-02-05T08:47:29.061Z,4.63
2023-02-05T08:49:56.786Z,7.35
2023-02-05T08:52:24.635Z,5.05
2023-02-05T08:54:52.521Z,4.47
2023-02-05T08:57:20.243Z,5.78
2023-02-05T08:59:48.692Z,6.05
2023-02-05T09:02:21.526Z,6.82
2023-02-05T09:04:51.362Z,5.78
2023-02-05T09:07:22.382Z,4.28
2023-02-05T09:09:52.273Z,7.25
2023-02-05T09:12:20.191Z,4.95
2023-02-05T09:14:48.033Z,4.47
2023-02-05T09:17:16.383Z,7.05
2023-02-05T09:19:44.246Z,7.43
2023-02-05T09:22:12.218Z,4.50
2023-02-05T09:24:40.118Z,6.43
2023-02-05T09:27:08.060Z,6.30
2023-02-05T09:29:35.982Z,6.10
2023-02-05T09:32:04.036Z,7.57
2023-02-05T09:34:32.920Z,4.65
2023-02-05T09:37:03.758Z,8.07
2023-02-05T09:40:17.260Z,4.75
2023-02-05T09:42:49.585Z,7.82
2023-02-05T09:45:38.282Z,6.20
2023-02-05T09:48:31.162Z,20.45
2023-02-05T09:51:02.266Z,6.35
2023-02-05T09:53:35.356Z,6.78
2023-02-05T09:56:04.620Z,5.80
2023-02-05T09:58:33.209Z,5.57
2023-02-05T10:01:21.184Z,5.75
2023-02-05T10:03:58.683Z,7.07
2023-02-05T10:06:37.182Z,5.65
2023-02-05T10:09:31.480Z,6.43
2023-02-05T10:12:28.791Z,6.28
2023-02-05T10:15:29.575Z,6.28
2023-02-05T10:18:29.258Z,7.55
2023-02-05T10:21:17.382Z,7.18
2023-02-05T10:24:33.413Z,5.80
2023-02-05T10:27:19.680Z,7.75
2023-02-05T10:30:12.433Z,6.75
2023-02-05T10:32:58.682Z,5.63
2023-02-05T10:36:10.824Z,7.80
2023-02-05T10:38:44.355Z,5.72
2023-02-05T10:41:40.157Z,5.40
2023-02-05T10:44:29.406Z,6.78
2023-02-05T10:47:04.880Z,5.88
2023-02-05T10:50:05.856Z,5.47
2023-02-05T10:52:33.694Z,8.52
2023-02-05T10:55:01.480Z,8.82
2023-02-05T10:57:33.585Z,5.82
2023-02-05T11:00:07.905Z,6.00
2023-02-05T11:02:40.051Z,6.10
2023-02-05T11:05:31.129Z,6.22
2023-02-05T11:07:59.116Z,5.60
2023-02-05T11:10:31.499Z,5.63
2023-02-05T11:13:20.594Z,5.03
2023-02-05T11:16:09.222Z,6.50
2023-02-05T11:18:40.672Z,6.55
2023-02-05T11:21:10.003Z,6.45
2023-02-05T11:23:41.457Z,5.40
2023-02-05T11:26:30.717Z,6.05
2023-02-05T11:28:58.660Z,5.68
2023-02-05T11:31:29.059Z,6.82
2023-02-05T11:34:08.853Z,8.88
2023-02-05T11:36:51.900Z,6.70
2023-02-05T11:39:36.230Z,4.35
2023-02-05T11:42:16.552Z,5.25
2023-02-05T11:44:55.642Z,6.40
2023-02-05T11:47:36.157Z,7.00
2023-02-05T11:50:05.369Z,4.15
2023-02-05T11:52:38.371Z,5.13
2023-02-05T11:55:10.355Z,6.28
2023-02-05T11:57:41.478Z,4.70
2023-02-05T12:00:13.372Z,4.70
2023-02-05T12:02:43.074Z,4.93
2023-02-05T12:05:20.259Z,5.55
2023-02-05T12:07:53.885Z,5.15
2023-02-05T12:11:02.229Z,4.85
2023-02-05T12:13:51.506Z,4.25
2023-02-05T12:16:25.557Z,4.65
2023-02-05T12:19:15.883Z,4.35
2023-02-05T12:21:51.953Z,6.22
2023-02-05T12:24:50.359Z,7.07
2023-02-05T12:27:39.698Z,4.68
2023-02-05T12:30:36.042Z,3.80
2023-02-05T12:33:44.297Z,4.25
2023-02-05T12:36:41.151Z,5.43
2023-02-05T12:39:33.705Z,5.35
2023-02-05T12:42:11.993Z,5.65
2023-02-05T12:45:03.471Z,5.53
2023-02-05T12:47:34.137Z,4.53
2023-02-05T12:50:13.741Z,4.72
2023-02-05T12:53:12.311Z,6.88
2023-02-05T12:55:59.707Z,6.03
2023-02-05T12:58:37.423Z,6.28
2023-02-05T13:01:11.789Z,4.97
2023-02-05T13:03:52.301Z,5.53
2023-02-05T13:06:31.950Z,6.53
2023-02-05T13:09:23.636Z,5.75
2023-02-05T13:12:06.253Z,6.20
2023-02-05T13:14:55.860Z,5.80
2023-02-05T13:17:28.888Z,6.13
2023-02-05T13:20:05.270Z,5.63
2023-02-05T13:23:28.564Z,5.47
2023-02-05T13:26:15.968Z,4.70
2023-02-05T13:28:49.974Z,4.88
2023-02-05T13:31:24.766Z,7.05
2023-02-05T13:33:55.186Z,5.50
2023-02-05T13:36:38.105Z,6.60
2023-02-05T13:39:26.432Z,7.60
2023-02-05T13:42:21.463Z,5.32
2023-02-05T13:45:07.979Z,5.05
2023-02-05T13:47:48.931Z,5.20
2023-02-05T13:50:35.952Z,5.78
2023-02-05T13:53:14.098Z,5.90
2023-02-05T13:56:17.668Z,8.25
2023-02-05T13:58:53.138Z,7.18
2023-02-05T14:01:32.012Z,5.65
2023-02-05T14:04:21.605Z,4.07
2023-02-05T14:07:14.736Z,5.97
2023-02-05T14:09:44.835Z,7.40
2023-02-05T14:12:21.789Z,5.90
2023-02-05T14:15:17.723Z,4.60
2023-02-05T14:17:45.568Z,6.65
2023-02-05T14:20:26.067Z,7.85
2023-02-05T14:22:55.782Z,4.40
2023-02-05T14:25:43.070Z,5.53
2023-02-05T14:28:17.128Z,4.82
2023-02-05T14:31:03.578Z,5.88
2023-02-05T14:33:41.415Z,6.75
2023-02-05T14:36:22.776Z,6.22
2023-02-05T14:38:57.272Z,7.25
2023-02-05T14:41:39.144Z,9.07
2023-02-05T14:44:21.373Z,5.07
2023-02-05T14:47:00.111Z,5.38
2023-02-05T14:49:33.250Z,7.07
2023-02-05T14:52:37.173Z,4.85
2023-02-05T14:55:14.344Z,5.00
2023-02-05T14:57:53.538Z,6.63
2023-02-05T15:00:42.239Z,5.75
2023-02-05T15:03:25.731Z,6.82
2023-02-05T15:05:57.139Z,4.18
2023-02-05T15:08:28.732Z,7.93
2023-02-05T15:11:00.626Z,9.75
2023-02-05T15:16:11.332Z,4.35
2023-02-05T15:18:45.292Z,6.15
2023-02-05T15:21:19.624Z,5.40
2023-02-05T15:23:53.674Z,6.30
2023-02-05T15:26:42.280Z,4.63
2023-02-05T15:29:28.450Z,9.57
2023-02-05T15:32:16.397Z,9.23
2023-02-05T15:34:55.418Z,6.50
2023-02-05T15:37:37.169Z,7.20
2023-02-05T15:40:13.878Z,6.18
2023-02-05T15:42:45.409Z,6.50
2023-02-05T15:45:34.620Z,7.07
2023-02-05T15:48:14.330Z,5.75
2023-02-05T15:50:51.650Z,8.68
2023-02-05T15:53:36.384Z,9.18
2023-02-05T15:56:27.774Z,7.28
2023-02-05T15:59:17.242Z,10.68
2023-02-05T16:01:50.854Z,10.38
2023-02-05T16:04:40.372Z,9.32
2023-02-05T16:07:23.678Z,7.32
2023-02-05T16:09:56.269Z,6.40
2023-02-05T16:12:24.514Z,6.07
2023-02-05T16:15:03.311Z,6.20
2023-02-05T16:17:41.389Z,6.10
2023-02-05T16:20:30.890Z,5.68
2023-02-05T16:23:03.982Z,7.35
2023-02-05T16:25:49.595Z,5.28
2023-02-05T16:28:30.629Z,5.53
2023-02-05T16:30:59.293Z,5.75
2023-02-05T16:33:29.972Z,5.30
2023-02-05T16:35:59.536Z,7.90
2023-02-05T16:38:28.524Z,4.28
2023-02-05T16:41:02.000Z,3.97
2023-02-05T16:43:37.897Z,5.05
2023-02-05T16:46:09.163Z,5.45
2023-02-05T16:48:47.087Z,5.40
2023-02-05T16:51:37.096Z,8.13
2023-02-05T16:54:10.839Z,7.50
2023-02-05T16:56:48.045Z,5.85
2023-02-05T16:59:41.069Z,5.20
2023-02-05T17:02:40.419Z,5.43
2023-02-05T17:05:29.492Z,6.45
2023-02-05T17:08:09.410Z,7.82
2023-02-05T17:10:56.585Z,6.05
2023-02-05T17:13:41.562Z,6.28
2023-02-05T17:16:31.572Z,7.38
2023-02-05T17:19:01.521Z,9.60
2023-02-05T17:21:34.327Z,9.00
2023-02-05T17:24:05.160Z,6.80
2023-02-05T17:26:35.600Z,5.47
2023-02-05T17:29:06.228Z,6.63
2023-02-05T17:31:37.382Z,6.95
2023-02-05T17:34:05.812Z,6.95
2023-02-05T17:36:33.601Z,6.03
2023-02-05T17:39:01.438Z,5.70
2023-02-05T17:41:51.473Z,5.80
2023-02-05T17:44:22.290Z,10.75
2023-02-05T17:46:54.400Z,5.68
2023-02-05T17:49:22.275Z,12.90
2023-02-05T17:51:53.106Z,10.07
2023-02-05T17:54:23.470Z,9.98
2023-02-05T17:56:58.722Z,18.23
2023-02-05T17:59:27.346Z,12.27
2023-02-05T18:01:55.248Z,12.80
2023-02-05T18:04:23.181Z,10.18
2023-02-05T18:06:51.309Z,6.57
2023-02-05T18:09:20.173Z,9.43
2023-02-05T18:11:48.012Z,7.25
2023-02-05T18:14:16.065Z,7.70
2023-02-05T18:16:43.996Z,7.68
2023-02-05T18:19:12.088Z,7.60
2023-02-05T18:21:39.923Z,7.03
2023-02-05T18:24:07.828Z,7.18
2023-02-05T18:26:36.410Z,8.70
2023-02-05T18:29:04.119Z,8.80
2023-02-05T18:31:33.161Z,7.85
2023-02-05T18:34:04.018Z,5.65
2023-02-05T18:36:31.773Z,9.07
2023-02-05T18:38:59.537Z,8.50
2023-02-05T18:41:31.075Z,6.30
2023-02-05T18:43:59.943Z,7.13
2023-02-05T18:46:29.398Z,8.63
2023-02-05T18:48:57.430Z,7.07
2023-02-05T18:51:25.349Z,8.18
2023-02-05T18:53:53.691Z,7.22
2023-02-05T18:56:26.832Z,6.95
2023-02-05T18:58:59.399Z,5.93
2023-02-05T19:01:29.443Z,7.45
2023-02-05T19:04:00.801Z,7.78
2023-02-05T19:06:28.833Z,5.97
2023-02-05T19:08:58.450Z,8.15
2023-02-05T19:11:30.831Z,7.60
2023-02-05T19:14:02.735Z,6.88
2023-02-05T19:16:32.228Z,5.43
2023-02-05T19:19:01.091Z,7.63
2023-02-05T19:21:31.467Z,6.88
2023-02-05T19:24:05.616Z,6.45
2023-02-05T19:26:35.212Z,6.38
2023-02-05T19:29:05.695Z,8.27
2023-02-05T19:31:35.592Z,7.22
2023-02-05T19:34:04.619Z,7.00
2023-02-05T19:36:32.616Z,6.75
2023-02-05T19:39:02.342Z,6.70
2023-02-05T19:41:32.926Z,8.73
2023-02-05T19:44:02.838Z,8.60
2023-02-05T19:46:33.436Z,8.48
2023-02-05T19:49:07.545Z,9.60
2023-02-05T19:51:38.053Z,10.45
2023-02-05T19:54:07.018Z,7.97
2023-02-05T19:56:38.205Z,11.27
2023-02-05T19:59:06.961Z,8.82
2023-02-05T20:01:37.774Z,9.23
2023-02-05T20:04:16.884Z,9.23
2023-02-05T20:06:46.485Z,9.95
2023-02-05T20:09:18.839Z,9.05
2023-02-05T20:11:52.684Z,8.95
2023-02-05T20:14:21.076Z,10.70
2023-02-05T20:16:52.379Z,9.23
2023-02-05T20:19:20.670Z,12.25
2023-02-05T20:21:48.832Z,8.65
2023-02-05T20:24:17.410Z,10.70
2023-02-05T20:26:48.638Z,10.38
2023-02-05T20:29:35.650Z,9.98
2023-02-05T20:32:04.224Z,9.38
2023-02-05T20:34:35.337Z,8.98
2023-02-05T20:37:06.699Z,8.77
2023-02-05T20:39:35.543Z,8.63
2023-02-05T20:42:03.999Z,8.85
2023-02-05T20:44:33.969Z,11.23
2023-02-05T20:47:02.776Z,11.20
2023-02-05T20:49:30.852Z,10.82
2023-02-05T20:51:58.704Z,11.27
2023-02-05T20:54:26.447Z,11.23
2023-02-05T20:56:59.660Z,13.00
2023-02-05T20:59:35.612Z,13.48
2023-02-05T21:02:06.198Z,11.73
2023-02-05T21:04:34.213Z,11.60
2023-02-05T21:07:02.268Z,11.35
2023-02-05T21:09:33.203Z,8.60
2023-02-05T21:12:02.015Z,10.45
2023-02-05T21:14:29.939Z,9.18
2023-02-05T21:16:57.772Z,9.80
2023-02-05T21:19:25.994Z,9.48
2023-02-05T21:21:54.052Z,8.52
2023-02-05T21:24:21.943Z,11.43
2023-02-05T21:26:50.484Z,10.60
2023-02-05T21:29:20.426Z,10.75
2023-02-05T21:31:50.762Z,9.00
2023-02-05T21:34:23.738Z,11.60
2023-02-05T21:36:52.792Z,9.18
2023-02-05T21:39:21.491Z,10.25
2023-02-05T21:41:55.946Z,9.57
2023-02-05T21:44:24.347Z,10.00
2023-02-05T21:46:53.865Z,12.32
2023-02-05T21:49:22.014Z,13.70
2023-02-05T21:51:50.649Z,11.02
2023-02-05T21:54:18.613Z,15.23
2023-02-05T21:56:46.360Z,11.95
2023-02-05T21:59:15.595Z,13.07
2023-02-05T22:01:43.580Z,10.05
2023-02-05T22:04:16.025Z,10.90
2023-02-05T22:06:44.637Z,12.32
2023-02-05T22:09:15.141Z,12.43
2023-02-05T22:11:43.665Z,13.48
2023-02-05T22:14:12.485Z,11.82
2023-02-05T22:16:41.009Z,12.30
2023-02-05T22:19:09.132Z,11.30
2023-02-05T22:21:40.303Z,11.00
2023-02-05T22:24:11.018Z,11.00
2023-02-05T22:26:41.737Z,14.77
2023-02-05T22:29:13.049Z,13.63
2023-02-05T22:31:42.204Z,11.93
2023-02-05T22:34:10.373Z,13.88
2023-02-05T22:36:38.787Z,10.32
2023-02-05T22:39:07.482Z,11.60
2023-02-05T22:41:40.342Z,10.07
2023-02-05T22:44:09.937Z,16.00
2023-02-05T22:46:42.740Z,14.48
2023-02-05T22:49:15.579Z,14.20
2023-02-05T22:51:44.192Z,15.18
2023-02-05T22:54:13.944Z,12.50
2023-02-05T22:56:42.014Z,14.02
2023-02-05T22:59:09.879Z,12.45
2023-02-05T23:01:41.406Z,12.63
2023-02-05T23:04:09.970Z,15.30
2023-02-05T23:06:40.623Z,13.27
2023-02-05T23:09:11.346Z,13.57
2023-02-05T23:11:39.497Z,10.88
2023-02-05T23:14:08.022Z,11.35
2023-02-05T23:16:39.273Z,11.85
2023-02-05T23:19:18.649Z,12.70
2023-02-05T23:21:47.515Z,12.68
2023-02-05T23:24:16.368Z,10.65
2023-02-05T23:26:46.768Z,15.93
2023-02-05T23:29:16.214Z,14.23
2023-02-05T23:31:44.709Z,15.63
2023-02-05T23:34:13.165Z,14.70
2023-02-05T23:36:41.375Z,13.05
2023-02-05T23:39:09.492Z,15.55
2023-02-05T23:41:40.560Z,14.25
2023-02-05T23:44:14.345Z,15.00
2023-02-05T23:46:43.177Z,15.50
2023-02-05T23:49:11.609Z,12.60
2023-02-05T23:51:40.254Z,14.05
2023-02-05T23:54:09.354Z,13.48
2023-02-05T23:56:37.463Z,12.48
2023-02-05T23:59:06.928Z,11.90
